createdAt,value
2022-12-03T00:03:03.585Z,101766.77
2022-12-03T00:08:06.991Z,101767.58
2022-12-03T00:13:10.335Z,101770.88
2022-12-03T00:18:13.543Z,101768.40
2022-12-03T00:23:16.957Z,101764.33
2022-12-03T00:28:20.367Z,101756.93
2022-12-03T00:33:23.578Z,101753.42
2022-12-03T00:38:26.890Z,101749.52
2022-12-03T00:43:30.196Z,101751.89
2022-12-03T00:48:33.404Z,101749.73
2022-12-03T00:53:36.610Z,101746.80
2022-12-03T00:58:40.333Z,101742.07
2022-12-03T01:03:43.436Z,101737.86
2022-12-03T01:08:46.644Z,101735.77
2022-12-03T01:13:49.752Z,101735.89
2022-12-03T01:18:53.368Z,101737.63
2022-12-03T01:23:56.983Z,101728.19
2022-12-03T01:28:59.993Z,101726.59
2022-12-03T01:34:03.299Z,101726.03
2022-12-03T01:39:06.608Z,101727.22
2022-12-03T01:44:25.016Z,101724.90
2022-12-03T01:49:44.460Z,101722.77
2022-12-03T01:54:59.547Z,101722.20
2022-12-03T02:00:04.773Z,101720.75
2022-12-03T02:05:19.734Z,101716.67
2022-12-03T02:10:32.736Z,101710.85
2022-12-03T02:15:40.387Z,101709.58
2022-12-03T02:21:13.445Z,101707.43
2022-12-03T02:26:16.960Z,101701.29
2022-12-03T02:31:20.132Z,101699.69
2022-12-03T02:36:24.192Z,101698.82
2022-12-03T02:41:53.819Z,101694.23
2022-12-03T02:46:57.101Z,101692.07
2022-12-03T02:52:00.543Z,101688.70
2022-12-03T02:57:04.364Z,101685.70
2022-12-03T03:02:11.778Z,101684.62
2022-12-03T03:07:16.003Z,101683.52
2022-12-03T03:12:19.311Z,101685.75
2022-12-03T03:17:22.519Z,101688.17
2022-12-03T03:22:35.251Z,101678.05
2022-12-03T03:27:40.405Z,101675.26
2022-12-03T03:32:43.922Z,101675.75
2022-12-03T03:37:47.127Z,101672.73
2022-12-03T03:42:50.640Z,101667.31
2022-12-03T03:47:54.979Z,101662.09
2022-12-03T03:52:59.825Z,101661.89
2022-12-03T03:58:03.134Z,101663.56
2022-12-03T04:03:07.265Z,101657.06
2022-12-03T04:08:10.570Z,101658.06
2022-12-03T04:13:13.882Z,101663.80
2022-12-03T04:18:35.829Z,101665.91
2022-12-03T04:23:39.243Z,101661.36
2022-12-03T04:28:51.158Z,101652.10
2022-12-03T04:34:12.895Z,101653.27
2022-12-03T04:39:16.103Z,101655.72
2022-12-03T04:44:36.589Z,101653.58
2022-12-03T04:49:42.764Z,101649.84
2022-12-03T04:54:46.309Z,101651.16
2022-12-03T04:59:49.835Z,101653.05
2022-12-03T05:04:53.129Z,101649.02
2022-12-03T05:09:56.446Z,101646.94
2022-12-03T05:14:59.548Z,101645.52
2022-12-03T05:20:21.805Z,101649.14
2022-12-03T05:25:25.421Z,101649.48
2022-12-03T05:30:28.814Z,101644.40
2022-12-03T05:35:32.453Z,101645.04
2022-12-03T05:40:35.964Z,101639.05
2022-12-03T05:45:41.206Z,101638.65
2022-12-03T05:50:46.397Z,101638.95
2022-12-03T05:55:49.480Z,101632.28
2022-12-03T06:00:52.890Z,101632.64
2022-12-03T06:05:56.615Z,101630.54
2022-12-03T06:11:00.025Z,101634.54
2022-12-03T06:16:03.537Z,101631.69
2022-12-03T06:21:07.052Z,101633.92
2022-12-03T06:26:14.562Z,101636.11
2022-12-03T06:31:18.128Z,101636.92
2022-12-03T06:36:23.444Z,101636.52
2022-12-03T06:41:27.053Z,101637.35
2022-12-03T06:46:30.633Z,101633.50
2022-12-03T06:51:33.883Z,101630.84
2022-12-03T06:56:43.521Z,101623.98
2022-12-03T07:01:48.648Z,101624.95
2022-12-03T07:06:52.409Z,101623.83
2022-12-03T07:11:55.727Z,101623.03
2022-12-03T07:16:59.973Z,101622.25
2022-12-03T07:22:03.894Z,101623.42
2022-12-03T07:27:07.809Z,101623.51
2022-12-03T07:32:11.012Z,101621.34
2022-12-03T07:37:16.591Z,101622.27
2022-12-03T07:42:22.055Z,101620.61
2022-12-03T07:47:25.142Z,101618.28
2022-12-03T07:52:28.659Z,101618.23
2022-12-03T07:57:31.965Z,101617.02
2022-12-03T08:02:35.480Z,101612.64
2022-12-03T08:07:38.915Z,101612.94
2022-12-03T08:12:42.618Z,101614.95
2022-12-03T08:17:52.374Z,101618.10
2022-12-03T08:22:57.764Z,101622.11
2022-12-03T08:28:19.016Z,101625.23
2022-12-03T08:33:35.735Z,101624.40
2022-12-03T08:38:39.200Z,101624.29
2022-12-03T08:43:44.106Z,101625.48
2022-12-03T08:48:49.474Z,101617.55
2022-12-03T08:54:01.911Z,101617.13
2022-12-03T08:59:14.459Z,101618.27
2022-12-03T09:04:36.643Z,101615.88
2022-12-03T09:09:44.142Z,101609.46
2022-12-03T09:14:47.849Z,101607.52
2022-12-03T09:19:51.455Z,101610.50
2022-12-03T09:24:55.923Z,101609.55
2022-12-03T09:29:59.202Z,101606.02
2022-12-03T09:35:02.410Z,101608.32
2022-12-03T09:40:08.218Z,101608.11
2022-12-03T09:45:15.013Z,101603.44
2022-12-03T09:50:24.687Z,101597.56
2022-12-03T09:55:29.269Z,101597.06
2022-12-03T10:00:32.375Z,101599.85
2022-12-03T10:05:35.578Z,101595.21
2022-12-03T10:10:42.375Z,101591.11
2022-12-03T10:15:45.786Z,101589.80
2022-12-03T10:20:50.019Z,101584.56
2022-12-03T10:26:03.857Z,101582.17
2022-12-03T10:31:12.249Z,101580.73
2022-12-03T10:36:15.512Z,101580.11
2022-12-03T10:41:23.325Z,101580.70
2022-12-03T10:46:27.054Z,101577.52
2022-12-03T10:51:31.640Z,101577.27
2022-12-03T10:56:36.610Z,101574.70
2022-12-03T11:01:40.912Z,101576.67
2022-12-03T11:06:45.206Z,101573.11
2022-12-03T11:11:50.197Z,101572.41
2022-12-03T11:17:09.076Z,101568.62
2022-12-03T11:22:19.853Z,101562.33
2022-12-03T11:27:24.799Z,101556.35
2022-12-03T11:32:44.746Z,101552.16
2022-12-03T11:37:52.002Z,101546.45
2022-12-03T11:42:57.828Z,101540.78
2022-12-03T11:48:14.687Z,101531.54
2022-12-03T11:53:25.122Z,101535.77
2022-12-03T11:58:31.751Z,101530.19
2022-12-03T12:03:48.250Z,101525.94
2022-12-03T12:08:53.299Z,101525.77
2022-12-03T12:14:12.304Z,101525.28
2022-12-03T12:19:29.011Z,101522.44
2022-12-03T12:24:51.935Z,101520.11
2022-12-03T12:30:20.516Z,101518.95
2022-12-03T12:35:27.871Z,101512.64
2022-12-03T12:40:34.995Z,101514.86
2022-12-03T12:45:42.034Z,101516.23
2022-12-03T12:50:49.418Z,101518.36
2022-12-03T12:56:01.615Z,101518.44
2022-12-03T13:01:12.248Z,101515.73
2022-12-03T13:06:17.886Z,101515.90
2022-12-03T13:11:37.777Z,101518.10
2022-12-03T13:16:43.316Z,101515.09
2022-12-03T13:21:48.915Z,101508.60
2022-12-03T13:26:54.084Z,101508.92
2022-12-03T13:32:13.402Z,101507.10
2022-12-03T13:37:26.680Z,101508.40
2022-12-03T13:42:42.288Z,101506.59
2022-12-03T13:48:25.296Z,101504.52
2022-12-03T13:53:38.739Z,101500.98
2022-12-03T13:58:41.845Z,101503.14
2022-12-03T14:03:45.470Z,101500.79
2022-12-03T14:08:49.075Z,101499.09
2022-12-03T14:13:52.488Z,101499.88
2022-12-03T14:18:55.489Z,101506.25
2022-12-03T14:23:58.696Z,101511.98
2022-12-03T14:29:05.977Z,101512.76
2022-12-03T14:34:13.103Z,101510.73
2022-12-03T14:39:16.211Z,101515.54
2022-12-03T14:44:21.975Z,101523.80
2022-12-03T14:49:26.309Z,101517.12
2022-12-03T14:54:29.728Z,101509.05
2022-12-03T14:59:32.858Z,101504.52
2022-12-03T15:04:35.933Z,101498.20
2022-12-03T15:09:39.245Z,101493.65
2022-12-03T15:14:43.597Z,101487.35
2022-12-03T15:19:46.692Z,101486.30
2022-12-03T15:24:50.300Z,101491.59
2022-12-03T15:29:54.070Z,101495.27
2022-12-03T15:34:57.537Z,101494.27
2022-12-03T15:40:00.744Z,101502.68
2022-12-03T15:45:05.284Z,101506.64
2022-12-03T15:50:10.351Z,101506.95
2022-12-03T15:55:13.955Z,101506.73
2022-12-03T16:00:18.823Z,101503.39
2022-12-03T16:05:22.421Z,101500.74
2022-12-03T16:10:25.840Z,101503.69
2022-12-03T16:15:29.447Z,101503.46
2022-12-03T16:20:32.552Z,101501.14
2022-12-03T16:25:35.655Z,101505.48
2022-12-03T16:31:02.815Z,101507.55
2022-12-03T16:36:34.391Z,101508.20
2022-12-03T16:41:37.922Z,101511.15
2022-12-03T16:46:41.394Z,101510.96
2022-12-03T16:51:44.741Z,101513.02
2022-12-03T16:56:47.752Z,101517.50
2022-12-03T17:01:51.315Z,101520.45
2022-12-03T17:06:54.680Z,101521.65
2022-12-03T17:11:57.982Z,101518.09
2022-12-03T17:17:01.290Z,101518.02
2022-12-03T17:22:04.704Z,101514.50
2022-12-03T17:27:08.319Z,101519.17
2022-12-03T17:32:11.631Z,101521.00
2022-12-03T17:37:17.091Z,101520.23
2022-12-03T17:42:20.504Z,101525.75
2022-12-03T17:47:23.610Z,101519.67
2022-12-03T17:52:26.923Z,101519.95
2022-12-03T17:57:30.546Z,101515.73
2022-12-03T18:02:33.861Z,101513.77
2022-12-03T18:07:37.094Z,101510.96
2022-12-03T18:12:40.368Z,101513.73
2022-12-03T18:17:43.884Z,101518.63
2022-12-03T18:22:47.198Z,101512.15
2022-12-03T18:27:51.015Z,101509.11
2022-12-03T18:32:54.849Z,101512.38
2022-12-03T18:37:58.455Z,101515.10
2022-12-03T18:43:02.895Z,101512.41
2022-12-03T18:48:17.025Z,101508.86
2022-12-03T18:53:20.264Z,101505.27
2022-12-03T18:58:23.475Z,101506.95
2022-12-03T19:03:26.949Z,101503.05
2022-12-03T19:08:30.197Z,101495.25
2022-12-03T19:13:33.300Z,101493.03
2022-12-03T19:18:37.025Z,101497.69
2022-12-03T19:23:40.938Z,101507.27
2022-12-03T19:28:44.222Z,101505.98
2022-12-03T19:33:48.387Z,101512.73
2022-12-03T19:38:57.114Z,101514.27
2022-12-03T19:44:02.258Z,101510.52
2022-12-03T19:49:08.046Z,101510.30
2022-12-03T19:54:12.275Z,101512.00
2022-12-03T19:59:15.687Z,101520.17
2022-12-03T20:04:20.862Z,101522.90
2022-12-03T20:09:24.152Z,101523.00
2022-12-03T20:14:28.588Z,101525.20
2022-12-03T20:19:31.804Z,101522.14
2022-12-03T20:24:35.236Z,101516.46
2022-12-03T20:29:38.940Z,101518.14
2022-12-03T20:34:44.704Z,101521.06
2022-12-03T20:39:51.450Z,101526.03
2022-12-03T20:44:55.827Z,101522.61
2022-12-03T20:49:59.555Z,101525.13
2022-12-03T20:55:02.781Z,101518.58
2022-12-03T21:00:07.193Z,101519.20
2022-12-03T21:05:11.634Z,101519.98
2022-12-03T21:10:33.983Z,101516.58
2022-12-03T21:15:37.810Z,101513.14
2022-12-03T21:20:47.384Z,101515.29
2022-12-03T21:25:50.569Z,101514.16
2022-12-03T21:30:53.728Z,101506.84
2022-12-03T21:35:57.604Z,101497.30
2022-12-03T21:41:01.935Z,101498.49
2022-12-03T21:47:11.156Z,101500.35
2022-12-03T21:51:33.843Z,101498.14
2022-12-03T21:56:37.466Z,101502.77
2022-12-03T22:01:45.570Z,101502.17
2022-12-03T22:06:50.334Z,101502.42
2022-12-03T22:11:55.690Z,101510.21
2022-12-03T22:16:59.410Z,101514.17
2022-12-03T22:22:03.882Z,101513.92
2022-12-03T22:27:07.463Z,101512.27
2022-12-03T22:32:10.873Z,101505.15
2022-12-03T22:37:14.198Z,101517.20
2022-12-03T22:42:17.708Z,101513.80
2022-12-03T22:47:21.429Z,101513.01
2022-12-03T22:52:24.529Z,101508.52
2022-12-03T22:57:27.737Z,101503.18
2022-12-03T23:02:30.883Z,101507.11
2022-12-03T23:07:35.127Z,101507.04
2022-12-03T23:12:38.590Z,101507.30
2022-12-03T23:17:42.309Z,101500.71
2022-12-03T23:22:45.311Z,101506.25
2022-12-03T23:27:49.032Z,101508.29
2022-12-03T23:32:52.754Z,101499.63
2022-12-03T23:37:55.873Z,101499.52
2022-12-03T23:42:59.271Z,101501.86
2022-12-03T23:48:02.581Z,101503.34
2022-12-03T23:53:05.684Z,101507.65
2022-12-03T23:58:08.897Z,101508.81
